EDT,Max TemperatureF,Mean TemperatureF,Min TemperatureF,Max Dew PointF,MeanDew PointF,Min DewpointF,Max Humidity, Mean Humidity, Min Humidity, Max Sea Level PressureIn, Mean Sea Level PressureIn, Min Sea Level PressureIn, Max VisibilityMiles, Mean VisibilityMiles, Min VisibilityMiles, Max Wind SpeedMPH, Mean Wind SpeedMPH, Max Gust SpeedMPH,PrecipitationIn, CloudCover, Events, WindDirDegrees
2012-3-1,42,40,39,36,32,30,81,71,65,29.92,29.82,29.68,15,9,7,18,14,25,0.00,8,,261
2012-3-2,57,47,39,50,39,30,88,69,38,29.83,29.52,29.29,15,10,3,18,14,29,0.00,6,Rain,157
2012-3-3,39,36,33,27,24,23,70,61,56,29.74,29.66,29.57,15,11,6,23,19,40,0.00,8,Snow,259
2012-3-4,35,32,26,28,24,21,93,75,65,29.88,29.80,29.73,10,8,1,20,12,23,0.00,7,Snow,323
2012-3-5,30,27,24,19,18,14,80,68,59,30.43,30.29,30.02,10,8,4,17,12,23,0.00,7,Snow,306
2012-3-6,53,38,26,27,23,19,74,45,28,30.45,30.29,30.20,19,11,10,21,14,29,0.00,3,,181
2012-3-7,68,60,51,43,35,25,45,37,32,30.26,30.17,30.09,20,15,10,18,15,34,0.00,6,,217
2012-3-8,60,48,35,54,42,28,93,78,59,30.13,29.98,29.88,10,6,2,18,16,31,0.00,7,Rain,255
2012-3-9,39,36,30,30,23,14,87,61,44,30.46,30.30,30.14,20,10,2,21,17,36,0.00,5,Snow,299
2012-3-10,48,34,21,21,17,14,80,44,27,30.56,30.45,30.33,20,15,10,16,8,20,0.00,4,,182
2012-3-11,66,55,44,32,27,21,39,31,24,30.38,30.32,30.26,20,13,10,15,11,,0.00,3,,230
2012-3-12,60,56,51,54,34,28,77,45,34,30.18,30.06,29.91,10,8,5,17,13,29,0.00,7,Rain,190
2012-3-13,68,62,55,50,45,37,82,56,40,30.11,30.04,29.99,15,11,10,18,13,23,0.00,3,,275
2012-3-14,75,58,41,48,40,30,70,43,28,30.20,30.14,30.10,20,13,10,14,8,,0.00,1,,195
2012-3-15,77,70,62,57,53,48,77,59,41,30.14,30.08,30.03,10,9,7,18,14,25,0.00,7,Rain-Thunderstorm,199
2012-3-16,68,62,55,59,56,54,94,80,68,30.17,30.14,30.08,10,8,5,12,6,,0.00,4,,286
2012-3-17,78,66,53,59,54,45,94,63,30,30.24,30.19,30.14,20,14,5,12,7,,0.00,2,,163
2012-3-18,77,68,60,59,57,54,94,71,47,30.17,30.13,30.09,15,9,2,17,11,29,0.00,7,Rain-Thunderstorm,199
2012-3-19,75,63,51,61,59,52,100,76,57,30.16,30.13,30.10,10,8,4,9,3,,0.00,2,,101
2012-3-20,84,72,60,59,57,54,82,58,37,30.21,30.17,30.14,10,10,7,12,8,,0.00,5,,125
2012-3-21,82,72,62,57,56,52,72,53,39,30.23,30.19,30.13,20,12,10,9,7,,0.00,1,,130
2012-3-22,82,71,60,57,55,52,82,52,37,30.19,30.14,30.10,20,15,10,9,6,,0.00,2,,76
2012-3-23,80,66,53,59,54,50,88,58,42,30.08,29.98,29.88,20,13,10,13,6,,0.00,7,Rain,52
2012-3-24,68,62,51,61,56,48,94,80,72,29.86,29.84,29.82,10,9,7,10,7,,0.00,7,,210
2012-3-25,59,52,46,50,48,46,100,88,72,30.00,29.93,29.88,10,4,0,7,3,,0.00,5,Fog,333
2012-3-26,41,38,35,32,24,19,75,56,42,30.37,30.31,30.17,15,11,7,20,16,29,0.00,3,,8
2012-3-27,55,42,28,25,19,16,64,36,22,30.38,30.21,29.97,15,11,10,14,9,23,0.00,3,,174
2012-3-28,73,62,50,39,33,30,66,35,22,29.90,29.77,29.69,15,11,10,18,13,30,0.00,4,,284
2012-3-29,42,40,37,34,31,30,75,67,61,30.14,30.10,30.01,20,12,10,14,10,21,0.00,8,,7
2012-3-30,53,44,35,39,34,28,93,68,47,30.05,29.87,29.69,15,9,4,18,11,28,0.00,6,Rain-Thunderstorm,107
2012-3-31,41,39,37,36,35,34,93,84,76,29.98,29.95,29.90,10,8,6,12,10,,0.00,8,,39